Freistadt, Austria
Current Conditions -  °F | °C
As of 8:50 AM on Saturday 25 Oct 2014 (Local Time) from LOWL Reporting Station
Broken Clouds Broken Clouds  
Wind Chill: 37°   Ceiling: 1400
Heat Index: 41°   Visibility: 4mi
Dew Point: 37°   Wind: 6mph
Humidity: 87%   Direction: 80°E
Pressure: 30.18"   Gusts: NA
Location:  48.52°N, 14.5°E
Report Text: LOWL 250650Z 08005KT 6000 FEW010 BKN014 05/03 Q1022 TEMPO SCT014
Loading
Personal Weather Stations






























Interactive Weather Map
Tropical Storm Tracking
New forecast layout! Learn more

10-Day Weather Forecast

Advertisements
Track Severe Weather on mobile